createdAt,value
2023-01-30T00:01:03.570Z,27.20
2023-01-30T00:03:30.500Z,27.60
2023-01-30T00:05:59.572Z,29.40
2023-01-30T00:08:26.242Z,27.40
2023-01-30T00:10:52.908Z,28.60
2023-01-30T00:13:24.319Z,26.60
2023-01-30T00:15:50.901Z,32.30
2023-01-30T00:18:17.467Z,26.90
2023-01-30T00:20:44.279Z,23.90
2023-01-30T00:23:11.100Z,24.90
2023-01-30T00:25:37.747Z,21.10
2023-01-30T00:28:06.898Z,22.30
2023-01-30T00:30:33.701Z,20.40
2023-01-30T00:33:00.422Z,24.20
2023-01-30T00:35:29.683Z,24.70
2023-01-30T00:37:57.283Z,27.80
2023-01-30T00:40:25.111Z,29.30
2023-01-30T00:46:02.793Z,24.60
2023-01-30T00:48:29.507Z,29.30
2023-01-30T00:50:58.696Z,29.00
2023-01-30T00:53:25.409Z,30.50
2023-01-30T00:55:53.161Z,30.30
2023-01-30T00:58:21.005Z,30.40
2023-01-30T01:00:48.256Z,26.70
2023-01-30T01:03:14.763Z,28.30
2023-01-30T01:05:44.611Z,30.80
2023-01-30T01:08:14.310Z,28.50
2023-01-30T01:26:05.000Z,29.30
2023-01-30T01:28:36.283Z,31.00
2023-01-30T01:31:10.750Z,33.30
2023-01-30T01:33:39.173Z,33.90
2023-01-30T01:36:08.115Z,32.60
2023-01-30T01:38:36.003Z,34.70
2023-01-30T01:41:06.097Z,38.00
2023-01-30T01:43:58.624Z,36.60
2023-01-30T01:46:35.354Z,35.40
2023-01-30T01:49:12.601Z,38.40
2023-01-30T01:51:54.551Z,36.40
2023-01-30T01:54:31.718Z,32.90
2023-01-30T01:57:04.000Z,35.50
2023-01-30T01:59:40.812Z,37.00
2023-01-30T02:02:12.907Z,34.40
2023-01-30T02:05:02.378Z,25.80
2023-01-30T02:07:53.613Z,34.30
2023-01-30T02:10:26.686Z,32.30
2023-01-30T02:12:57.151Z,30.90
2023-01-30T02:15:25.317Z,29.60
2023-01-30T02:17:53.617Z,35.00
2023-01-30T02:20:40.048Z,31.20
2023-01-30T02:23:31.369Z,33.10
2023-01-30T02:25:59.335Z,27.50
2023-01-30T02:29:07.237Z,29.90
2023-01-30T02:31:40.620Z,27.10
2023-01-30T02:34:25.653Z,29.30
2023-01-30T02:37:15.496Z,29.00
2023-01-30T02:39:55.425Z,26.50
2023-01-30T02:42:37.760Z,28.50
2023-01-30T02:45:17.035Z,24.30
2023-01-30T02:47:57.023Z,22.20
2023-01-30T02:50:36.759Z,22.70
2023-01-30T02:53:06.419Z,24.20
2023-01-30T02:55:37.527Z,25.20
2023-01-30T02:58:09.994Z,24.50
2023-01-30T03:00:43.743Z,21.30
2023-01-30T03:03:27.109Z,21.70
2023-01-30T03:06:10.118Z,20.40
2023-01-30T03:09:08.041Z,21.50
2023-01-30T03:11:49.317Z,25.40
2023-01-30T03:14:20.483Z,20.90
2023-01-30T03:16:52.291Z,18.80
2023-01-30T03:19:25.819Z,19.40
2023-01-30T03:21:54.597Z,21.40
2023-01-30T03:24:23.132Z,24.40
2023-01-30T03:26:58.765Z,20.50
2023-01-30T03:29:27.168Z,20.60
2023-01-30T03:31:55.376Z,18.40
2023-01-30T03:34:26.202Z,14.90
2023-01-30T03:36:58.078Z,17.80
2023-01-30T03:39:26.696Z,22.50
2023-01-30T03:41:55.016Z,20.60
2023-01-30T03:44:23.726Z,18.40
2023-01-30T03:46:51.784Z,17.70
2023-01-30T03:49:23.556Z,17.60
2023-01-30T03:51:52.492Z,18.90
2023-01-30T03:54:20.570Z,18.80
2023-01-30T03:56:52.329Z,22.20
2023-01-30T03:59:23.279Z,19.40
2023-01-30T04:01:58.218Z,18.80
2023-01-30T04:04:26.530Z,19.30
2023-01-30T04:06:54.750Z,17.50
2023-01-30T04:09:22.992Z,21.00
2023-01-30T04:11:53.067Z,17.90
2023-01-30T04:14:21.129Z,16.60
2023-01-30T04:17:12.477Z,18.90
2023-01-30T04:20:07.011Z,20.60
2023-01-30T04:22:37.686Z,20.90
2023-01-30T04:25:05.790Z,22.80
2023-01-30T04:27:33.881Z,21.10
2023-01-30T04:30:12.305Z,21.00
2023-01-30T04:32:44.189Z,21.70
2023-01-30T04:35:14.668Z,19.40
2023-01-30T04:37:42.677Z,22.70
2023-01-30T04:40:11.473Z,25.20
2023-01-30T04:42:40.227Z,21.00
2023-01-30T04:45:37.243Z,23.20
2023-01-30T04:48:05.503Z,17.60
2023-01-30T04:50:33.609Z,19.00
2023-01-30T04:53:01.561Z,18.50
2023-01-30T04:55:29.919Z,23.10
2023-01-30T04:58:03.355Z,19.80
2023-01-30T05:00:34.553Z,18.70
2023-01-30T05:03:02.854Z,17.80
2023-01-30T05:05:31.055Z,18.70
2023-01-30T05:08:01.700Z,22.50
2023-01-30T05:10:29.639Z,17.40
2023-01-30T05:13:02.399Z,23.00
2023-01-30T05:15:33.935Z,21.20
2023-01-30T05:18:01.906Z,20.00
2023-01-30T05:20:32.114Z,17.60
2023-01-30T05:23:00.013Z,18.60
2023-01-30T05:25:28.016Z,19.00
2023-01-30T05:27:57.158Z,22.50
2023-01-30T05:30:25.348Z,21.50
2023-01-30T05:32:53.571Z,24.80
2023-01-30T05:35:21.767Z,21.00
2023-01-30T05:37:52.928Z,22.00
2023-01-30T05:40:20.906Z,20.70
2023-01-30T05:42:48.951Z,18.90
2023-01-30T05:45:17.309Z,20.30
2023-01-30T05:47:50.168Z,23.90
2023-01-30T05:50:18.282Z,18.80
2023-01-30T05:52:46.632Z,19.50
2023-01-30T05:55:14.720Z,19.70
2023-01-30T05:57:42.874Z,19.00
2023-01-30T06:00:11.547Z,20.90
2023-01-30T06:02:42.405Z,18.80
2023-01-30T06:05:10.902Z,20.30
2023-01-30T06:07:38.867Z,20.70
2023-01-30T06:10:07.057Z,19.70
2023-01-30T06:12:34.985Z,20.60
2023-01-30T06:15:05.471Z,19.70
2023-01-30T06:17:33.415Z,25.30
2023-01-30T06:20:03.541Z,22.30
2023-01-30T06:22:31.523Z,22.00
2023-01-30T06:25:01.113Z,24.10
2023-01-30T06:27:29.290Z,26.40
2023-01-30T06:29:57.473Z,26.90
2023-01-30T06:32:25.618Z,23.40
2023-01-30T06:35:01.798Z,23.50
2023-01-30T06:37:29.816Z,25.40
2023-01-30T06:39:58.911Z,26.10
2023-01-30T06:42:34.753Z,21.40
2023-01-30T06:45:04.171Z,23.70
2023-01-30T06:47:32.450Z,22.50
2023-01-30T06:50:04.261Z,24.30
2023-01-30T06:53:12.627Z,25.50
2023-01-30T06:55:46.724Z,24.10
2023-01-30T06:58:35.579Z,23.70
2023-01-30T07:01:19.918Z,23.90
2023-01-30T07:04:02.407Z,26.70
2023-01-30T07:28:12.704Z,26.40
2023-01-30T07:30:46.018Z,26.70
2023-01-30T07:34:08.330Z,28.50
2023-01-30T07:36:37.851Z,25.60
2023-01-30T07:39:20.371Z,26.90
2023-01-30T07:41:49.176Z,27.20
2023-01-30T07:44:21.325Z,26.00
2023-01-30T07:46:49.824Z,30.40
2023-01-30T07:49:18.273Z,27.60
2023-01-30T08:19:08.770Z,23.30
2023-01-30T08:54:23.192Z,30.30
2023-01-30T08:56:53.378Z,26.80
2023-01-30T08:59:24.567Z,24.00
2023-01-30T09:02:02.697Z,25.20
2023-01-30T09:04:31.135Z,26.30
2023-01-30T09:06:59.403Z,26.70
2023-01-30T09:09:29.326Z,27.00
2023-01-30T09:12:05.293Z,26.30
2023-01-30T09:14:40.811Z,23.40
2023-01-30T09:17:10.008Z,25.20
2023-01-30T09:19:39.332Z,23.70
2023-01-30T09:22:10.157Z,24.40
2023-01-30T09:24:38.411Z,24.10
2023-01-30T09:27:09.412Z,23.70
2023-01-30T09:29:41.662Z,23.70
2023-01-30T09:47:02.248Z,30.20
2023-01-30T09:50:06.411Z,24.60
2023-01-30T09:53:06.685Z,25.00
2023-01-30T09:55:41.733Z,25.30
2023-01-30T09:58:25.575Z,22.50
2023-01-30T10:01:02.258Z,24.50
2023-01-30T10:03:42.070Z,22.70
2023-01-30T10:06:14.768Z,21.30
2023-01-30T10:09:00.551Z,22.00
2023-01-30T10:12:04.851Z,22.70
2023-01-30T10:15:25.620Z,21.60
2023-01-30T10:18:02.701Z,21.70
2023-01-30T10:20:35.653Z,29.00
2023-01-30T10:23:06.202Z,25.20
2023-01-30T10:25:45.772Z,24.20
2023-01-30T10:28:35.470Z,28.10
2023-01-30T10:31:15.393Z,24.50
2023-01-30T10:33:53.537Z,26.80
2023-01-30T10:36:57.157Z,27.60
2023-01-30T10:39:54.818Z,25.40
2023-01-30T10:42:33.264Z,22.10
2023-01-30T10:45:24.450Z,30.00
2023-01-30T10:48:07.451Z,26.70
2023-01-30T10:50:54.046Z,27.70
2023-01-30T10:53:49.517Z,28.20
2023-01-30T10:56:35.146Z,25.60
2023-01-30T10:59:26.318Z,26.50
2023-01-30T11:02:35.400Z,27.50
2023-01-30T11:05:21.505Z,26.70
2023-01-30T11:07:50.206Z,27.40
2023-01-30T11:10:22.962Z,28.00
2023-01-30T11:12:58.823Z,29.10
2023-01-30T11:15:48.340Z,28.10
2023-01-30T11:19:06.662Z,30.10
2023-01-30T11:21:16.428Z,20.30
2023-01-30T12:08:42.917Z,25.70
2023-01-30T12:11:37.439Z,23.70
2023-01-30T12:14:24.277Z,25.50
2023-01-30T12:17:22.035Z,25.30
2023-01-30T12:21:13.231Z,24.30
2023-01-30T12:24:47.904Z,23.90
2023-01-30T12:28:14.219Z,25.60
2023-01-30T12:31:21.430Z,22.60
2023-01-30T14:13:18.714Z,20.60
2023-01-30T15:21:10.283Z,20.60
2023-01-30T15:24:19.147Z,22.30
2023-01-30T15:56:55.523Z,21.20
2023-01-30T15:59:35.735Z,19.30
2023-01-30T16:02:13.751Z,20.20
2023-01-30T16:04:44.744Z,17.20
2023-01-30T16:10:44.443Z,20.10
2023-01-30T16:13:32.937Z,21.20
2023-01-30T16:16:14.749Z,20.90
2023-01-30T16:18:53.459Z,17.00
2023-01-30T16:22:00.327Z,21.10
2023-01-30T16:24:49.601Z,20.80
2023-01-30T16:27:33.255Z,20.90
2023-01-30T16:30:06.770Z,22.60
2023-01-30T16:32:38.291Z,21.90
2023-01-30T16:35:15.540Z,23.80
2023-01-30T16:37:42.473Z,24.30
2023-01-30T16:40:24.892Z,22.00
2023-01-30T16:43:21.452Z,22.00
2023-01-30T16:45:52.997Z,21.50
2023-01-30T17:17:26.294Z,29.00
2023-01-30T17:20:42.641Z,25.10
2023-01-30T18:07:58.468Z,18.90
2023-01-30T18:10:35.349Z,18.50
2023-01-30T18:13:04.911Z,21.20
2023-01-30T18:15:32.092Z,21.90
2023-01-30T18:18:01.716Z,24.60
2023-01-30T18:20:28.902Z,20.40
2023-01-30T18:23:05.131Z,22.10
2023-01-30T18:26:15.403Z,18.30
2023-01-30T18:28:43.612Z,16.80
2023-01-30T18:31:12.092Z,20.40
2023-01-30T18:33:51.021Z,21.70
2023-01-30T18:36:32.119Z,24.20
2023-01-30T18:39:02.247Z,18.80
2023-01-30T18:41:29.502Z,23.60
2023-01-30T18:44:07.786Z,24.00
2023-01-30T18:46:35.170Z,20.70
2023-01-30T18:49:07.657Z,19.40
2023-01-30T18:51:36.975Z,23.70
2023-01-30T18:54:04.061Z,20.70
2023-01-30T18:56:33.225Z,25.30
2023-01-30T18:59:04.678Z,25.90
2023-01-30T19:01:36.188Z,25.70
2023-01-30T19:04:10.812Z,26.90
2023-01-30T19:06:42.265Z,28.00
2023-01-30T19:09:17.943Z,27.20
2023-01-30T19:12:06.808Z,26.50
2023-01-30T19:17:05.299Z,32.00
2023-01-30T19:19:50.118Z,30.10
2023-01-30T19:22:18.151Z,33.80
2023-01-30T19:24:47.600Z,37.70
2023-01-30T19:27:15.863Z,27.20
2023-01-30T19:29:45.297Z,29.40
2023-01-30T19:32:14.717Z,38.70
2023-01-30T19:34:45.008Z,29.10
2023-01-30T19:37:12.234Z,32.70
2023-01-30T19:39:39.149Z,29.30
2023-01-30T19:42:06.224Z,28.10
2023-01-30T19:44:33.378Z,24.00
2023-01-30T19:47:00.718Z,27.10
2023-01-30T19:49:27.681Z,26.80
2023-01-30T19:51:56.336Z,20.30
2023-01-30T19:54:23.709Z,21.70
2023-01-30T19:56:51.188Z,18.40
2023-01-30T19:59:18.511Z,19.00
2023-01-30T20:01:45.943Z,18.90
2023-01-30T20:04:16.083Z,19.00
2023-01-30T20:06:46.097Z,18.00
2023-01-30T20:09:12.990Z,17.80
2023-01-30T20:11:43.968Z,17.10
2023-01-30T20:14:11.357Z,14.70
2023-01-30T20:16:38.641Z,12.90
2023-01-30T20:19:13.325Z,12.90
2023-01-30T20:21:41.111Z,25.10
2023-01-30T20:24:11.532Z,14.80
2023-01-30T20:26:39.230Z,16.10
2023-01-30T20:29:08.130Z,16.00
2023-01-30T20:31:37.755Z,18.50
2023-01-30T20:34:07.430Z,17.60
2023-01-30T20:36:34.442Z,16.20
2023-01-30T20:39:07.592Z,21.30
2023-01-30T20:41:37.720Z,18.00
2023-01-30T20:44:07.056Z,13.40
2023-01-30T20:46:40.507Z,17.30
2023-01-30T20:49:20.839Z,14.80
2023-01-30T20:51:51.972Z,17.60
2023-01-30T20:54:54.095Z,17.00
2023-01-30T20:57:35.133Z,18.00
2023-01-30T21:00:05.267Z,18.70
2023-01-30T21:02:32.208Z,21.40
2023-01-30T21:04:59.149Z,18.70
2023-01-30T21:07:25.861Z,17.20
2023-01-30T21:09:55.564Z,20.50
2023-01-30T21:12:43.042Z,26.00
2023-01-30T21:15:12.938Z,23.60
2023-01-30T21:17:40.089Z,17.50
2023-01-30T21:20:07.573Z,20.30
2023-01-30T21:22:37.425Z,18.10
2023-01-30T21:25:41.451Z,19.00
2023-01-30T21:28:10.109Z,19.90
2023-01-30T22:06:28.360Z,15.50
2023-01-30T22:08:58.999Z,14.10
2023-01-30T22:11:33.255Z,16.60
2023-01-30T22:14:06.716Z,16.70
2023-01-30T22:16:35.495Z,14.90
2023-01-30T22:19:06.670Z,14.50
2023-01-30T22:21:36.663Z,14.20
2023-01-30T22:24:07.452Z,12.50
2023-01-30T22:26:37.722Z,16.00
2023-01-30T22:29:05.876Z,15.60
2023-01-30T22:31:36.504Z,21.00
2023-01-30T22:34:06.348Z,16.80
2023-01-30T22:36:34.785Z,18.40
2023-01-30T22:39:06.021Z,19.40
2023-01-30T22:41:35.076Z,17.80
2023-01-30T22:44:07.587Z,15.90
2023-01-30T22:46:38.760Z,18.80
2023-01-30T22:49:07.753Z,17.00
2023-01-30T22:51:40.828Z,13.60
2023-01-30T22:54:12.127Z,17.80
2023-01-30T22:56:43.253Z,13.80
2023-01-30T22:59:10.586Z,12.90
2023-01-30T23:01:42.587Z,12.50
2023-01-30T23:04:20.721Z,14.90
2023-01-30T23:06:51.682Z,17.70
2023-01-30T23:09:22.783Z,14.40
2023-01-30T23:12:18.613Z,16.30
2023-01-30T23:15:08.863Z,16.20
2023-01-30T23:18:01.879Z,14.80
2023-01-30T23:20:36.685Z,19.30
2023-01-30T23:23:06.365Z,16.20
2023-01-30T23:25:42.327Z,16.70
2023-01-30T23:28:29.711Z,13.60
2023-01-30T23:30:59.547Z,15.50
2023-01-30T23:33:27.087Z,18.10
2023-01-30T23:36:07.106Z,15.90
2023-01-30T23:38:39.340Z,14.90
2023-01-30T23:41:13.544Z,15.40
2023-01-30T23:43:48.176Z,17.00
2023-01-30T23:46:33.996Z,18.70
2023-01-30T23:49:09.421Z,14.80
2023-01-30T23:51:40.302Z,12.80
2023-01-30T23:54:16.176Z,15.00
2023-01-30T23:56:47.350Z,13.60
2023-01-30T23:59:28.246Z,13.20
